createdAt,value
2022-11-28T00:01:39.662Z,28.38
2022-11-28T00:04:10.250Z,26.55
2022-11-28T00:06:40.625Z,23.63
2022-11-28T00:09:09.590Z,23.85
2022-11-28T00:11:37.925Z,26.17
2022-11-28T00:14:06.416Z,31.08
2022-11-28T00:16:34.820Z,36.17
2022-11-28T00:19:04.875Z,20.90
2022-11-28T00:21:35.074Z,24.77
2022-11-28T00:24:03.932Z,25.27
2022-11-28T00:26:34.317Z,25.08
2022-11-28T00:29:02.955Z,24.67
2022-11-28T00:31:34.093Z,22.83
2022-11-28T00:34:03.058Z,22.60
2022-11-28T00:36:31.934Z,19.15
2022-11-28T00:39:01.615Z,19.80
2022-11-28T00:41:31.530Z,25.55
2022-11-28T00:43:59.899Z,22.70
2022-11-28T00:46:29.172Z,31.48
2022-11-28T00:48:58.306Z,20.30
2022-11-28T00:51:28.415Z,17.67
2022-11-28T00:53:58.678Z,21.75
2022-11-28T00:56:30.054Z,20.67
2022-11-28T00:58:59.995Z,19.00
2022-11-28T01:01:31.179Z,19.40
2022-11-28T01:04:02.625Z,18.35
2022-11-28T01:06:32.857Z,20.02
2022-11-28T01:09:03.457Z,18.58
2022-11-28T01:11:33.482Z,16.67
2022-11-28T01:14:02.881Z,18.70
2022-11-28T01:16:31.900Z,16.35
2022-11-28T01:19:00.449Z,14.43
2022-11-28T01:21:29.289Z,22.25
2022-11-28T01:23:57.751Z,17.15
2022-11-28T01:26:27.737Z,16.40
2022-11-28T01:28:58.138Z,13.50
2022-11-28T01:31:29.160Z,15.95
2022-11-28T01:33:58.002Z,16.40
2022-11-28T01:36:27.060Z,14.98
2022-11-28T01:38:55.599Z,13.80
2022-11-28T01:41:26.921Z,15.80
2022-11-28T01:44:09.476Z,15.95
2022-11-28T01:46:38.285Z,14.35
2022-11-28T01:49:12.638Z,21.60
2022-11-28T01:51:46.175Z,19.35
2022-11-28T01:54:15.972Z,16.00
2022-11-28T01:56:51.340Z,14.65
2022-11-28T01:59:24.157Z,15.15
2022-11-28T02:01:52.390Z,17.10
2022-11-28T02:04:21.047Z,16.85
2022-11-28T02:06:49.307Z,15.48
2022-11-28T02:09:18.238Z,16.40
2022-11-28T02:12:09.250Z,15.13
2022-11-28T02:15:09.462Z,14.77
2022-11-28T02:17:48.307Z,17.02
2022-11-28T02:20:58.063Z,17.98
2022-11-28T02:23:33.462Z,19.50
2022-11-28T02:26:26.246Z,16.05
2022-11-28T02:29:42.789Z,17.17
2022-11-28T02:32:19.201Z,20.58
2022-11-28T02:34:56.003Z,19.52
2022-11-28T02:37:30.425Z,17.40
2022-11-28T02:40:10.221Z,23.80
2022-11-28T02:42:51.533Z,18.15
2022-11-28T02:45:25.475Z,21.20
2022-11-28T02:48:03.667Z,20.85
2022-11-28T02:50:36.564Z,20.17
2022-11-28T02:53:08.609Z,14.95
2022-11-28T02:55:41.308Z,15.65
2022-11-28T02:58:10.518Z,20.73
2022-11-28T03:00:40.359Z,14.70
2022-11-28T03:03:27.658Z,20.33
2022-11-28T03:06:00.340Z,14.50
2022-11-28T03:08:49.190Z,18.75
2022-11-28T03:11:24.320Z,17.75
2022-11-28T03:13:58.142Z,16.23
2022-11-28T03:16:30.896Z,18.33
2022-11-28T03:19:08.730Z,16.30
2022-11-28T03:21:42.129Z,20.05
2022-11-28T03:24:16.755Z,19.67
2022-11-28T03:26:54.026Z,15.27
2022-11-28T03:29:26.708Z,15.23
2022-11-28T03:31:58.611Z,17.88
2022-11-28T03:34:33.330Z,13.63
2022-11-28T03:37:07.329Z,18.77
2022-11-28T03:39:39.436Z,14.27
2022-11-28T03:42:11.926Z,14.02
2022-11-28T03:44:46.915Z,14.05
2022-11-28T03:47:15.503Z,14.07
2022-11-28T03:49:51.560Z,14.05
2022-11-28T03:52:25.558Z,20.00
2022-11-28T03:54:58.368Z,13.63
2022-11-28T03:57:34.369Z,17.80
2022-11-28T04:00:07.516Z,15.07
2022-11-28T04:02:42.150Z,14.05
2022-11-28T04:05:22.365Z,17.77
2022-11-28T04:07:57.598Z,13.73
2022-11-28T04:10:33.373Z,15.75
2022-11-28T04:13:06.930Z,13.50
2022-11-28T04:15:42.724Z,15.00
2022-11-28T04:18:21.868Z,12.70
2022-11-28T04:20:58.506Z,18.45
2022-11-28T04:23:28.846Z,13.13
2022-11-28T04:26:02.022Z,13.90
2022-11-28T04:28:34.122Z,14.00
2022-11-28T04:31:05.792Z,23.85
2022-11-28T04:33:37.638Z,15.23
2022-11-28T04:36:09.670Z,12.43
2022-11-28T04:38:39.518Z,19.67
2022-11-28T04:41:16.106Z,12.52
2022-11-28T04:43:50.088Z,14.02
2022-11-28T04:46:25.164Z,14.20
2022-11-28T04:48:53.529Z,14.65
2022-11-28T04:51:28.356Z,13.35
2022-11-28T04:54:03.108Z,12.68
2022-11-28T04:56:41.427Z,13.43
2022-11-28T04:59:10.287Z,18.70
2022-11-28T05:01:41.334Z,17.30
2022-11-28T05:04:09.697Z,18.08
2022-11-28T05:06:39.514Z,16.83
2022-11-28T05:09:08.216Z,17.30
2022-11-28T05:11:36.504Z,14.43
2022-11-28T05:14:04.891Z,13.15
2022-11-28T05:16:33.296Z,14.93
2022-11-28T05:19:01.492Z,12.90
2022-11-28T05:21:29.887Z,15.13
2022-11-28T05:23:59.553Z,12.18
2022-11-28T05:26:27.784Z,12.05
2022-11-28T05:28:57.209Z,16.15
2022-11-28T05:31:25.705Z,11.10
2022-11-28T05:33:55.164Z,10.45
2022-11-28T05:36:23.663Z,11.20
2022-11-28T05:38:51.967Z,15.07
2022-11-28T05:41:23.999Z,11.57
2022-11-28T05:43:52.815Z,10.30
2022-11-28T05:46:21.643Z,11.70
2022-11-28T05:48:49.871Z,9.95
2022-11-28T05:51:18.644Z,11.15
2022-11-28T05:53:46.815Z,11.40
2022-11-28T05:56:16.702Z,12.02
2022-11-28T05:58:46.898Z,8.95
2022-11-28T06:01:17.309Z,14.00
2022-11-28T06:03:46.195Z,11.60
2022-11-28T06:06:15.923Z,17.42
2022-11-28T06:08:44.855Z,13.55
2022-11-28T06:11:14.901Z,12.98
2022-11-28T06:13:43.198Z,12.07
2022-11-28T06:16:14.881Z,12.52
2022-11-28T06:18:43.634Z,16.17
2022-11-28T06:21:14.175Z,11.18
2022-11-28T06:23:42.867Z,11.70
2022-11-28T06:26:12.995Z,15.85
2022-11-28T06:28:41.696Z,10.82
2022-11-28T06:31:13.433Z,13.88
2022-11-28T06:33:42.333Z,10.18
2022-11-28T06:36:12.111Z,14.75
2022-11-28T06:38:40.508Z,14.35
2022-11-28T06:41:11.707Z,12.57
2022-11-28T06:43:40.423Z,13.30
2022-11-28T06:46:16.172Z,16.73
2022-11-28T06:48:45.074Z,12.32
2022-11-28T06:51:13.809Z,15.48
2022-11-28T06:53:42.494Z,14.85
2022-11-28T06:56:14.093Z,14.55
2022-11-28T06:58:43.203Z,15.20
2022-11-28T07:01:15.304Z,13.00
2022-11-28T07:03:44.075Z,12.18
2022-11-28T07:06:12.935Z,11.98
2022-11-28T07:08:41.638Z,13.15
2022-11-28T07:11:11.966Z,12.73
2022-11-28T07:13:40.639Z,12.65
2022-11-28T07:16:10.002Z,18.77
2022-11-28T07:18:39.879Z,12.57
2022-11-28T07:21:08.077Z,10.60
2022-11-28T07:23:36.278Z,13.13
2022-11-28T07:26:05.878Z,10.85
2022-11-28T07:28:35.999Z,18.52
2022-11-28T07:31:06.719Z,14.55
2022-11-28T07:33:36.440Z,13.70
2022-11-28T07:36:08.370Z,17.95
2022-11-28T07:38:36.734Z,11.63
2022-11-28T07:41:05.972Z,17.65
2022-11-28T07:43:34.229Z,11.00
2022-11-28T07:46:05.846Z,13.43
2022-11-28T07:48:34.388Z,12.70
2022-11-28T07:51:07.844Z,13.52
2022-11-28T07:53:36.206Z,14.52
2022-11-28T07:56:05.084Z,12.18
2022-11-28T07:58:33.605Z,16.25
2022-11-28T08:01:01.832Z,13.35
2022-11-28T08:03:30.139Z,17.65
2022-11-28T08:06:03.281Z,14.65
2022-11-28T08:08:34.585Z,14.45
2022-11-28T08:11:04.563Z,14.38
2022-11-28T08:13:32.971Z,19.23
2022-11-28T08:16:05.235Z,12.25
2022-11-28T08:18:33.688Z,15.77
2022-11-28T08:21:06.755Z,13.30
2022-11-28T08:23:37.534Z,16.35
2022-11-28T08:26:07.225Z,13.02
2022-11-28T08:28:35.703Z,15.73
2022-11-28T08:31:11.094Z,11.68
2022-11-28T08:33:39.889Z,15.38
2022-11-28T08:36:09.596Z,13.35
2022-11-28T08:38:39.396Z,14.20
2022-11-28T08:41:09.605Z,14.82
2022-11-28T08:43:39.350Z,11.93
2022-11-28T08:46:10.300Z,9.95
2022-11-28T08:48:38.942Z,19.95
2022-11-28T08:51:09.522Z,12.55
2022-11-28T08:53:39.175Z,14.57
2022-11-28T08:56:08.262Z,12.07
2022-11-28T08:58:36.546Z,10.45
2022-11-28T09:01:05.613Z,10.18
2022-11-28T09:03:34.011Z,9.23
2022-11-28T09:06:03.339Z,9.73
2022-11-28T09:08:31.625Z,12.63
2022-11-28T09:11:01.431Z,9.70
2022-11-28T09:13:29.694Z,11.77
2022-11-28T09:15:57.844Z,11.85
2022-11-28T09:18:27.126Z,13.88
2022-11-28T09:20:59.628Z,9.65
2022-11-28T09:23:28.024Z,9.85
2022-11-28T09:25:56.346Z,9.07
2022-11-28T09:28:28.811Z,9.80
2022-11-28T09:31:02.713Z,9.10
2022-11-28T09:33:31.395Z,9.95
2022-11-28T09:35:59.674Z,13.73
2022-11-28T09:38:28.081Z,11.45
2022-11-28T09:40:56.384Z,9.63
2022-11-28T09:43:32.219Z,9.13
2022-11-28T09:46:03.974Z,10.75
2022-11-28T09:48:37.914Z,10.43
2022-11-28T09:51:15.335Z,9.85
2022-11-28T09:53:51.735Z,14.57
2022-11-28T09:56:23.405Z,8.82
2022-11-28T09:58:57.883Z,8.10
2022-11-28T10:01:33.359Z,8.80
2022-11-28T10:04:07.540Z,9.70
2022-11-28T10:06:50.182Z,8.85
2022-11-28T10:09:29.330Z,9.25
2022-11-28T10:12:10.804Z,8.27
2022-11-28T10:15:02.597Z,12.55
2022-11-28T10:17:40.828Z,12.30
2022-11-28T10:20:15.335Z,9.10
2022-11-28T10:22:49.591Z,7.75
2022-11-28T10:25:22.442Z,10.23
2022-11-28T10:27:52.108Z,8.35
2022-11-28T10:30:24.334Z,7.05
2022-11-28T10:33:05.111Z,10.73
2022-11-28T10:35:42.805Z,7.38
2022-11-28T10:38:15.220Z,7.68
2022-11-28T10:40:49.014Z,7.38
2022-11-28T10:43:29.243Z,9.57
2022-11-28T10:46:13.683Z,11.10
2022-11-28T10:48:46.381Z,8.48
2022-11-28T10:51:26.426Z,7.85
2022-11-28T10:54:05.772Z,9.90
2022-11-28T10:56:48.563Z,19.30
2022-11-28T10:59:28.875Z,8.07
2022-11-28T11:01:59.278Z,7.82
2022-11-28T11:04:28.843Z,10.73
2022-11-28T11:07:10.225Z,8.80
2022-11-28T11:09:41.574Z,6.80
2022-11-28T11:12:17.498Z,10.15
2022-11-28T11:14:45.779Z,8.05
2022-11-28T11:17:31.271Z,10.65
2022-11-28T11:20:02.814Z,9.23
2022-11-28T11:22:32.071Z,9.85
2022-11-28T11:25:14.491Z,11.98
2022-11-28T11:27:50.997Z,9.02
2022-11-28T11:30:27.103Z,8.75
2022-11-28T11:32:58.891Z,9.77
2022-11-28T11:35:29.183Z,10.10
2022-11-28T11:38:17.509Z,11.82
2022-11-28T11:40:46.432Z,11.68
2022-11-28T11:43:29.074Z,9.40
2022-11-28T11:46:08.824Z,10.70
2022-11-28T11:48:40.357Z,9.15
2022-11-28T11:51:21.762Z,13.05
2022-11-28T11:53:50.062Z,9.25
2022-11-28T11:56:19.038Z,11.98
2022-11-28T11:58:53.351Z,10.95
2022-11-28T12:01:23.110Z,9.38
2022-11-28T12:03:58.159Z,10.48
2022-11-28T12:06:31.379Z,9.98
2022-11-28T12:09:08.781Z,13.18
2022-11-28T12:11:43.961Z,14.13
2022-11-28T12:14:28.010Z,12.68
2022-11-28T12:17:32.599Z,13.48
2022-11-28T12:20:14.099Z,11.90
2022-11-28T12:22:50.688Z,11.07
2022-11-28T12:25:26.906Z,12.13
2022-11-28T12:28:07.021Z,13.30
2022-11-28T12:30:51.441Z,11.93
2022-11-28T12:33:30.647Z,16.30
2022-11-28T12:36:11.327Z,12.77
2022-11-28T12:38:56.583Z,11.80
2022-11-28T12:41:39.112Z,13.50
2022-11-28T12:44:20.925Z,14.38
2022-11-28T12:46:55.416Z,11.75
2022-11-28T12:49:35.541Z,13.02
2022-11-28T12:52:21.200Z,11.68
2022-11-28T12:55:19.498Z,16.05
2022-11-28T12:57:54.298Z,12.85
2022-11-28T13:00:25.582Z,14.13
2022-11-28T13:03:13.120Z,14.95
2022-11-28T13:05:55.617Z,12.35
2022-11-28T13:08:48.924Z,19.13
2022-11-28T13:11:30.254Z,12.50
2022-11-28T13:14:05.514Z,11.98
2022-11-28T13:16:42.427Z,11.32
2022-11-28T13:19:16.859Z,13.05
2022-11-28T13:21:50.806Z,15.55
2022-11-28T13:24:31.413Z,13.23
2022-11-28T13:27:06.923Z,12.45
2022-11-28T13:29:43.627Z,19.65
2022-11-28T13:32:19.279Z,12.93
2022-11-28T13:34:48.800Z,14.02
2022-11-28T13:40:20.363Z,14.60
2022-11-28T13:43:09.830Z,10.52
2022-11-28T13:45:40.057Z,12.88
2022-11-28T13:51:39.064Z,14.88
2022-11-28T13:54:43.559Z,12.13
2022-11-28T13:57:23.936Z,12.60
2022-11-28T13:59:57.477Z,11.63
2022-11-28T14:02:45.147Z,12.02
2022-11-28T14:05:41.617Z,12.82
2022-11-28T14:08:24.254Z,11.07
2022-11-28T14:11:05.639Z,11.95
2022-11-28T14:13:55.387Z,17.38
2022-11-28T14:16:38.400Z,18.77
2022-11-28T14:19:23.851Z,11.80
2022-11-28T14:22:06.089Z,14.38
2022-11-28T14:24:52.970Z,12.65
2022-11-28T14:27:25.741Z,10.43
2022-11-28T14:29:58.013Z,13.88
2022-11-28T14:32:34.021Z,12.43
2022-11-28T14:35:03.063Z,16.48
2022-11-28T14:37:58.981Z,14.80
2022-11-28T14:41:06.887Z,24.30
2022-11-28T14:43:37.489Z,11.27
2022-11-28T14:46:34.885Z,18.83
2022-11-28T14:49:24.759Z,15.07
2022-11-28T14:52:41.987Z,26.17
2022-11-28T14:55:20.723Z,11.70
2022-11-28T14:58:00.911Z,16.63
2022-11-28T15:00:31.704Z,13.80
2022-11-28T15:03:24.211Z,13.05
2022-11-28T15:05:53.789Z,26.50
2022-11-28T15:08:36.188Z,15.70
2022-11-28T15:11:21.138Z,18.67
2022-11-28T15:14:15.981Z,13.30
2022-11-28T15:16:50.458Z,13.50
2022-11-28T15:19:26.099Z,16.17
2022-11-28T15:21:55.797Z,15.05
2022-11-28T15:24:26.348Z,13.88
2022-11-28T15:26:57.994Z,17.00
2022-11-28T15:29:28.571Z,13.40
2022-11-28T15:31:58.943Z,16.58
2022-11-28T15:34:31.666Z,16.92
2022-11-28T15:37:02.472Z,18.63
2022-11-28T15:39:36.117Z,11.73
2022-11-28T15:42:06.813Z,25.13
2022-11-28T15:44:36.671Z,14.18
2022-11-28T15:47:06.111Z,13.85
2022-11-28T15:49:38.626Z,15.23
2022-11-28T15:52:06.903Z,17.10
2022-11-28T15:54:39.231Z,14.30
2022-11-28T15:57:18.102Z,20.27
2022-11-28T15:59:46.856Z,15.63
2022-11-28T16:02:22.791Z,19.92
2022-11-28T16:04:59.137Z,19.77
2022-11-28T16:07:27.632Z,18.10
2022-11-28T16:10:00.943Z,18.52
2022-11-28T16:12:30.048Z,16.88
2022-11-28T16:15:01.971Z,19.45
2022-11-28T16:17:33.697Z,16.80
2022-11-28T16:20:05.413Z,20.02
2022-11-28T16:22:37.666Z,15.38
2022-11-28T16:25:15.555Z,18.38
2022-11-28T16:27:45.633Z,17.35
2022-11-28T16:30:36.961Z,17.50
2022-11-28T16:33:35.437Z,16.55
2022-11-28T16:36:13.498Z,21.55
2022-11-28T16:38:41.868Z,23.15
2022-11-28T16:41:18.928Z,17.45
2022-11-28T16:43:51.215Z,18.80
2022-11-28T16:46:22.886Z,15.05
2022-11-28T16:48:55.278Z,20.40
2022-11-28T16:51:36.605Z,20.50
2022-11-28T16:54:30.746Z,21.58
2022-11-28T16:57:10.478Z,24.95
2022-11-28T16:59:39.114Z,16.05
2022-11-28T17:02:15.929Z,20.30
2022-11-28T17:04:44.827Z,18.30
2022-11-28T17:07:17.674Z,14.05
2022-11-28T17:09:47.459Z,19.23
2022-11-28T17:12:22.864Z,17.27
2022-11-28T17:14:51.144Z,17.23
2022-11-28T17:17:20.634Z,21.42
2022-11-28T17:19:49.013Z,18.63
2022-11-28T17:22:21.363Z,19.15
2022-11-28T17:24:51.626Z,17.23
2022-11-28T17:27:19.886Z,19.70
2022-11-28T17:29:48.125Z,14.13
2022-11-28T17:32:16.826Z,14.35
2022-11-28T17:34:46.325Z,17.02
2022-11-28T17:37:14.767Z,15.93
2022-11-28T17:40:04.649Z,16.27
2022-11-28T17:42:33.212Z,16.88
2022-11-28T17:45:01.530Z,22.02
2022-11-28T17:47:29.894Z,16.33
2022-11-28T17:49:58.912Z,19.25
2022-11-28T17:52:30.361Z,16.13
2022-11-28T17:55:06.987Z,20.75
2022-11-28T17:57:36.214Z,22.33
2022-11-28T18:00:06.682Z,18.23
2022-11-28T18:02:35.387Z,15.77
2022-11-28T18:05:03.818Z,17.80
2022-11-28T18:07:33.393Z,15.00
2022-11-28T18:10:03.675Z,15.30
2022-11-28T18:12:32.453Z,17.60
2022-11-28T18:15:01.121Z,17.05
2022-11-28T18:17:29.424Z,19.55
2022-11-28T18:19:58.129Z,14.45
2022-11-28T18:22:26.303Z,19.83
2022-11-28T18:24:54.555Z,16.98
2022-11-28T18:27:24.345Z,14.30
2022-11-28T18:29:52.771Z,19.73
2022-11-28T18:32:21.035Z,12.60
2022-11-28T18:34:50.141Z,13.63
2022-11-28T18:37:18.601Z,14.77
2022-11-28T18:39:47.192Z,16.27
2022-11-28T18:42:15.788Z,17.23
2022-11-28T18:44:45.474Z,18.10
2022-11-28T18:47:13.754Z,14.48
2022-11-28T18:49:42.324Z,14.02
2022-11-28T18:52:10.807Z,14.55
2022-11-28T18:54:39.066Z,16.98
2022-11-28T18:57:08.098Z,16.20
2022-11-28T18:59:37.303Z,16.20
2022-11-28T19:02:07.053Z,17.10
2022-11-28T19:04:36.425Z,13.43
2022-11-28T19:07:04.683Z,17.92
2022-11-28T19:09:33.053Z,14.73
2022-11-28T19:12:01.249Z,18.20
2022-11-28T19:14:29.790Z,15.55
2022-11-28T19:16:58.319Z,19.70
2022-11-28T19:19:28.133Z,14.52
2022-11-28T19:21:56.500Z,17.92
2022-11-28T19:24:25.113Z,16.30
2022-11-28T19:26:53.434Z,16.92
2022-11-28T19:29:21.647Z,19.73
2022-11-28T19:31:49.886Z,15.77
2022-11-28T19:34:19.681Z,15.85
2022-11-28T19:36:51.232Z,21.08
2022-11-28T19:39:22.308Z,21.75
2022-11-28T19:41:51.590Z,16.05
2022-11-28T19:44:21.062Z,18.98
2022-11-28T19:46:50.461Z,20.35
2022-11-28T19:49:20.603Z,18.20
2022-11-28T19:51:51.421Z,18.02
2022-11-28T19:54:20.808Z,19.83
2022-11-28T19:56:49.600Z,23.70
2022-11-28T19:59:18.304Z,22.05
2022-11-28T20:01:49.098Z,26.17
2022-11-28T20:04:17.698Z,23.27
2022-11-28T20:06:46.085Z,16.77
2022-11-28T20:09:15.777Z,19.20
2022-11-28T20:11:45.730Z,17.60
2022-11-28T20:14:16.424Z,37.58
2022-11-28T20:16:45.143Z,19.40
2022-11-28T20:19:15.074Z,25.25
2022-11-28T20:21:43.428Z,22.00
2022-11-28T20:24:12.074Z,19.92
2022-11-28T20:26:44.055Z,21.35
2022-11-28T20:29:15.338Z,29.80
2022-11-28T20:31:45.979Z,20.83
2022-11-28T20:34:15.140Z,33.25
2022-11-28T20:36:43.793Z,23.58
2022-11-28T20:39:12.821Z,23.67
2022-11-28T20:41:43.384Z,24.92
2022-11-28T20:44:12.152Z,23.10
2022-11-28T20:46:40.455Z,28.83
2022-11-28T20:49:08.971Z,24.33
2022-11-28T20:51:37.834Z,30.48
2022-11-28T20:54:07.566Z,25.42
2022-11-28T20:57:05.178Z,22.23
2022-11-28T20:59:29.312Z,20.70
2022-11-28T21:01:57.640Z,29.35
2022-11-28T21:04:26.023Z,25.50
2022-11-28T21:06:54.265Z,29.33
2022-11-28T21:09:22.896Z,23.42
2022-11-28T21:11:57.378Z,26.42
2022-11-28T21:14:28.446Z,27.48
2022-11-28T21:16:57.578Z,36.05
2022-11-28T21:19:25.968Z,26.55
2022-11-28T21:21:54.422Z,21.50
2022-11-28T21:24:22.799Z,23.45
2022-11-28T21:26:53.836Z,22.35
2022-11-28T21:29:23.136Z,22.02
2022-11-28T21:31:53.436Z,26.13
2022-11-28T21:34:22.535Z,21.45
2022-11-28T21:36:53.638Z,26.92
2022-11-28T21:39:23.010Z,25.70
2022-11-28T21:41:52.250Z,23.52
2022-11-28T21:44:20.689Z,20.05
2022-11-28T21:46:49.110Z,23.42
2022-11-28T21:49:19.071Z,21.77
2022-11-28T21:51:47.380Z,22.48
2022-11-28T21:54:15.654Z,22.80
2022-11-28T21:56:44.039Z,22.73
2022-11-28T21:59:12.222Z,21.75
2022-11-28T22:01:40.686Z,22.85
2022-11-28T22:04:09.038Z,26.95
2022-11-28T22:06:38.570Z,28.55
2022-11-28T22:09:09.660Z,20.52
2022-11-28T22:11:39.328Z,23.52
2022-11-28T22:14:07.836Z,29.13
2022-11-28T22:16:36.206Z,26.20
2022-11-28T22:19:04.480Z,20.45
2022-11-28T22:24:23.091Z,36.78
2022-11-28T22:26:51.685Z,22.08
2022-11-28T22:29:20.141Z,23.95
2022-11-28T22:31:48.681Z,24.90
2022-11-28T22:34:16.905Z,19.55
2022-11-28T22:36:45.280Z,25.42
2022-11-28T22:39:13.640Z,24.38
2022-11-28T22:41:43.640Z,21.90
2022-11-28T22:44:12.783Z,25.15
2022-11-28T22:46:41.011Z,25.50
2022-11-28T22:49:10.356Z,18.05
2022-11-28T22:51:39.154Z,20.77
2022-11-28T22:54:07.908Z,17.45
2022-11-28T22:56:36.558Z,21.45
2022-11-28T22:59:07.387Z,25.58
2022-11-28T23:01:35.775Z,19.23
2022-11-28T23:04:04.374Z,24.85
2022-11-28T23:06:34.763Z,20.13
2022-11-28T23:09:05.901Z,24.27
2022-11-28T23:11:37.762Z,22.95
2022-11-28T23:14:08.155Z,20.63
2022-11-28T23:16:38.733Z,20.42
2022-11-28T23:19:13.753Z,25.70
2022-11-28T23:21:44.907Z,18.65
2022-11-28T23:24:15.712Z,27.52
2022-11-28T23:26:44.451Z,31.20
2022-11-28T23:29:14.636Z,23.08
2022-11-28T23:31:44.570Z,25.50
2022-11-28T23:34:13.328Z,20.70
2022-11-28T23:36:43.366Z,26.38
2022-11-28T23:39:13.546Z,29.10
2022-11-28T23:41:42.118Z,19.52
2022-11-28T23:44:11.987Z,20.60
2022-11-28T23:46:42.436Z,21.42
2022-11-28T23:49:11.731Z,22.95
2022-11-28T23:51:41.131Z,23.13
2022-11-28T23:54:10.611Z,22.63
2022-11-28T23:56:41.630Z,22.70
2022-11-28T23:59:12.731Z,24.40
